Evans, GA (30809)

6:36 AM EDT on August 20, 2014 (GMT -0400)
KGAEVANS6 | Change Station
CLOSE
Current Station
Personal Weather Station
Location: Evans, GA
Elevation: 384 ft
Nearby Weather Stations

Elev 384 ft 33.55 °N, 82.13 °W | Updated 21 seconds ago

Partly Cloudy
Partly Cloudy
73.5 °F
Feels Like 70 °F
N
1.0
Wind Variable Wind from NW
Gusts 2.0 mph

Today
High -- | Low -- °F
--% Chance of Precip.
Yesterday
High -- | Low -- °F
Precip. -- in
6:54 AM 8:08 PM
Waning Crescent, 22% visible
Pressure 29.93 in
Visibility 10.0 miles
Clouds Clear
Heat Index 70 °F
Dew Point 72 °F
Humidity 94%
Rainfall 0.00 in
Snow Depth Not available.
UV 0 out of 12
Pollen 7.70 out of 12
Ozone Good
PM2.5 Good
Flu Activity Not available.
METAR KDNL 200953Z AUTO 27004KT 10SM CLR 24/22 A2994 RMK AO2 SLP133 T02440222

More Conditions Fewer Conditions

Pressure 29.93 in
Visibility 10.0 miles
Clouds Clear
Heat Index 70 °F
Dew Point 72 °F
Humidity 94%
Rainfall 0.00 in
Snow Depth Not available.
UV 0 out of 12
Pollen 7.70 out of 12
Ozone Good
PM2.5 Good
Flu Activity Not available.
METAR KDNL 200953Z AUTO 27004KT 10SM CLR 24/22 A2994 RMK AO2 SLP133 T02440222

More Conditions Fewer Conditions

10-Day Weather Forecast

Almanac

Astronomy

Aug. 20, 2014 Rise Set
Actual Time 6:54 AM EDT 8:08 PM EDT
Civil Twilight 6:28 AM EDT 8:34 PM EDT
Nautical Twilight 5:57 AM EDT 9:05 PM EDT
Astronomical Twilight 5:25 AM EDT 9:37 PM EDT
Moon 2:38 AM EDT 4:47 PM EDT
Length of Visible Light 14h 06m
Length of Day
13h 14m
Tomorrow will be 1m 53s shorter.
Waning Crescent, 22% of the Moon is Illuminated
Today
Waning Crescent
Aug 25
New
Sep 2
First Quarter
Sep 8
Full
Sep 15
Last Quarter

Today's Extremes

State Highs State Lows

Community

WunderPhotos

Upload Photos

1,745,604 photos uploaded!

Nearby

Air Quality

  Air Quality AQ Index Pollutant
Yesterday Good
OZONE
Yesterday Good
PM2.5
Current Good
PM2.5
Current Good
OZONE
Wednesday Good
OZONE

Snow Depth

Station Depth Elevation
No new snow has been reported.

Earthquake Activity

City Distance Mag. Time & Date
No recent earthquake activity has been reported nearby.
Minimum magnitude displayed is 2.5.

Coastal Water Temperatures

Place Temperature
No Stations Reporting

Nearby Weather Stations